Terminal Aerodrome Forecast
Issued by NWS Atlanta, GA

Home | Current Version | Previous Version | Text Only | Print | Product List | Glossary On
Versions: 1 2 3 4 5 6 7 8 9 10 11 12 13 14 15 16 17 18 19 20 21 22 23 24 25 26 27 28 29 30 31 32 33 34 35 36
775
FTUS42 KFFC 271142
TAFATL
TAF
KATL 271142Z 2712/2818 12005KT P6SM BKN120
     FM271800 14008KT P6SM VCSH BKN045
      TEMPO 2720/2724 5SM SHRA BKN035
     FM280300 11005KT P6SM BKN035
     FM280600 11004KT 6SM BR BKN020
     FM280900 12004KT 5SM BR SCT009 BKN012 PROB30 2810/2814 4SM -RA
      BR BKN008
     FM281400 16007KT P6SM VCSH BKN012=

USA.gov is the U.S. government's official web portal to all federal, state and local government web resources and services.